createdAt,value
2024-05-09T00:00:18.399Z,12.9
2024-05-09T00:01:19.353Z,13
2024-05-09T00:02:25.048Z,13.2
2024-05-09T00:03:32.920Z,13.3
2024-05-09T00:04:38.421Z,13.2
2024-05-09T00:05:46.457Z,13.3
2024-05-09T00:06:51.805Z,13.1
2024-05-09T00:07:57.237Z,13.1
2024-05-09T00:09:02.543Z,13.1
2024-05-09T00:10:11.745Z,13.1
2024-05-09T00:11:13.475Z,13
2024-05-09T00:12:19.040Z,13
2024-05-09T00:13:27.192Z,13
2024-05-09T00:14:32.962Z,13
2024-05-09T00:15:40.670Z,12.9
2024-05-09T00:16:46.060Z,12.6
2024-05-09T00:17:51.846Z,12.6
2024-05-09T00:18:57.828Z,12.7
2024-05-09T00:20:05.172Z,12.7
2024-05-09T00:21:09.023Z,12.8
2024-05-09T00:22:14.504Z,12.7
2024-05-09T00:23:19.851Z,12.7
2024-05-09T00:24:24.942Z,12.7
2024-05-09T00:25:30.671Z,12.6
2024-05-09T00:26:35.856Z,12.4
2024-05-09T00:27:41.337Z,12.4
2024-05-09T00:28:47.002Z,12.5
2024-05-09T00:29:52.082Z,12.3
2024-05-09T00:30:57.879Z,12.3
2024-05-09T00:32:03.396Z,12.3
2024-05-09T00:33:09.793Z,12.3
2024-05-09T00:34:14.517Z,12.3
2024-05-09T00:35:20.016Z,12.4
2024-05-09T00:36:25.496Z,12.3
2024-05-09T00:37:30.914Z,12.3
2024-05-09T00:38:36.601Z,12.5
2024-05-09T00:39:41.817Z,12.6
2024-05-09T00:40:47.645Z,12.4
2024-05-09T00:41:53.135Z,12.4
2024-05-09T00:42:58.665Z,12.3
2024-05-09T00:44:04.227Z,12.4
2024-05-09T00:45:09.542Z,12.4
2024-05-09T00:46:15.343Z,12.3
2024-05-09T00:47:20.808Z,12.3
2024-05-09T00:48:26.405Z,12.2
2024-05-09T00:49:31.698Z,12.2
2024-05-09T00:50:37.700Z,12.3
2024-05-09T00:51:42.287Z,12.2
2024-05-09T00:52:48.155Z,12.2
2024-05-09T00:53:53.876Z,12.1
2024-05-09T00:54:59.225Z,12.1
2024-05-09T00:56:05.100Z,12.1
2024-05-09T00:57:10.624Z,12
2024-05-09T00:58:15.997Z,12
2024-05-09T00:59:21.579Z,12.1
2024-05-09T01:00:31.439Z,12
2024-05-09T01:01:32.442Z,12
2024-05-09T01:02:37.737Z,11.9
2024-05-09T01:03:43.605Z,12
2024-05-09T01:04:48.753Z,12
2024-05-09T01:05:54.216Z,11.9
2024-05-09T01:06:59.629Z,11.9
2024-05-09T01:08:08.604Z,11.8
2024-05-09T01:09:13.546Z,11.8
2024-05-09T01:10:24.059Z,11.8
2024-05-09T01:11:24.720Z,11.8
2024-05-09T01:12:30.220Z,11.8
2024-05-09T01:13:35.558Z,11.8
2024-05-09T01:14:41.034Z,11.7
2024-05-09T01:15:46.277Z,11.7
2024-05-09T01:16:51.838Z,11.7
2024-05-09T01:17:57.629Z,11.7
2024-05-09T01:19:02.794Z,11.6
2024-05-09T01:20:10.606Z,11.6
2024-05-09T01:21:13.720Z,11.5
2024-05-09T01:22:18.960Z,11.5
2024-05-09T01:23:24.391Z,11.4
2024-05-09T01:24:29.961Z,11.4
2024-05-09T01:25:35.193Z,11.4
2024-05-09T01:26:40.876Z,11.4
2024-05-09T01:27:46.200Z,11.4
2024-05-09T01:28:52.033Z,11.5
2024-05-09T01:29:57.348Z,11.6
2024-05-09T01:31:02.940Z,11.6
2024-05-09T01:32:08.253Z,11.6
2024-05-09T01:33:14.071Z,11.6
2024-05-09T01:34:19.668Z,11.7
2024-05-09T01:35:25.232Z,11.6
2024-05-09T01:36:30.706Z,11.6
2024-05-09T01:37:35.994Z,11.6
2024-05-09T01:38:41.843Z,11.5
2024-05-09T01:39:47.432Z,11.4
2024-05-09T01:40:52.778Z,11.3
2024-05-09T01:41:58.446Z,11.3
2024-05-09T01:43:03.774Z,11.3
2024-05-09T01:44:09.555Z,11.3
2024-05-09T01:45:14.820Z,11.3
2024-05-09T01:46:20.224Z,11.3
2024-05-09T01:47:25.685Z,11.4
2024-05-09T01:48:31.313Z,11.5
2024-05-09T01:49:36.652Z,11.3
2024-05-09T01:50:42.818Z,11.3
2024-05-09T01:51:46.797Z,11.3
2024-05-09T01:52:52.562Z,11.2
2024-05-09T01:53:58.030Z,11.2
2024-05-09T01:55:05.639Z,11.2
2024-05-09T01:56:11.547Z,11.3
2024-05-09T01:57:17.206Z,11.2
2024-05-09T01:58:22.596Z,11.2
2024-05-09T01:59:28.141Z,11.3
2024-05-09T02:00:37.540Z,11.3
2024-05-09T02:01:54.895Z,11.3
2024-05-09T02:02:44.834Z,11.4
2024-05-09T02:03:50.511Z,11.3
2024-05-09T02:04:55.915Z,11.4
2024-05-09T02:06:01.241Z,11.4
2024-05-09T02:07:06.905Z,11.3
2024-05-09T02:08:12.295Z,11.4
2024-05-09T02:09:17.911Z,11.4
2024-05-09T02:10:29.915Z,11.4
2024-05-09T02:11:29.130Z,11.5
2024-05-09T02:12:34.630Z,11.5
2024-05-09T02:13:40.035Z,11.4
2024-05-09T02:14:45.695Z,11.4
2024-05-09T02:15:51.406Z,11.5
2024-05-09T02:16:56.687Z,11.6
2024-05-09T02:18:02.487Z,11.6
2024-05-09T02:19:08.173Z,11.6
2024-05-09T02:20:18.574Z,11.6
2024-05-09T02:21:19.061Z,11.6
2024-05-09T02:22:24.272Z,11.7
2024-05-09T02:23:29.888Z,11.8
2024-05-09T02:24:35.278Z,11.8
2024-05-09T02:25:40.825Z,11.7
2024-05-09T02:26:46.022Z,11.8
2024-05-09T02:27:51.630Z,11.9
2024-05-09T02:28:59.805Z,11.7
2024-05-09T02:30:09.863Z,11.6
2024-05-09T02:31:12.414Z,11.6
2024-05-09T02:32:18.107Z,11.5
2024-05-09T02:33:23.767Z,11.4
2024-05-09T02:34:28.890Z,11.3
2024-05-09T02:35:34.463Z,11.3
2024-05-09T02:36:39.791Z,11.3
2024-05-09T02:37:45.146Z,11.4
2024-05-09T02:38:50.657Z,11.4
2024-05-09T02:39:55.874Z,11.5
2024-05-09T02:41:01.501Z,11.3
2024-05-09T02:42:06.625Z,11.4
2024-05-09T02:43:12.827Z,11.4
2024-05-09T02:44:18.046Z,11.4
2024-05-09T02:45:23.541Z,11.5
2024-05-09T02:46:29.106Z,11.6
2024-05-09T02:47:34.848Z,11.5
2024-05-09T02:48:40.444Z,11.4
2024-05-09T02:49:45.905Z,11.5
2024-05-09T02:50:51.220Z,11.6
2024-05-09T02:51:56.790Z,11.5
2024-05-09T02:53:02.220Z,11.6
2024-05-09T02:54:07.961Z,11.6
2024-05-09T02:55:16.118Z,11.6
2024-05-09T02:56:21.838Z,11.6
2024-05-09T02:57:27.255Z,11.7
2024-05-09T02:58:32.792Z,11.6
2024-05-09T02:59:38.577Z,11.7
2024-05-09T03:00:47.004Z,11.8
2024-05-09T03:01:52.613Z,11.8
2024-05-09T03:02:57.892Z,11.7
2024-05-09T03:04:03.373Z,11.7
2024-05-09T03:05:08.708Z,11.7
2024-05-09T03:06:14.290Z,11.6
2024-05-09T03:07:20.180Z,11.5
2024-05-09T03:08:24.965Z,11.6
2024-05-09T03:09:30.187Z,11.6
2024-05-09T03:10:37.315Z,11.4
2024-05-09T03:11:41.398Z,11.3
2024-05-09T03:12:47.097Z,11.3
2024-05-09T03:13:52.777Z,11.3
2024-05-09T03:14:58.358Z,11.3
2024-05-09T03:16:03.811Z,11.4
2024-05-09T03:17:09.185Z,11.5
2024-05-09T03:18:15.014Z,11.4
2024-05-09T03:19:20.398Z,11.4
2024-05-09T03:20:30.483Z,11.4
2024-05-09T03:21:31.284Z,11.4
2024-05-09T03:22:36.908Z,11.5
2024-05-09T03:23:42.311Z,11.2
2024-05-09T03:24:47.971Z,11.2
2024-05-09T03:25:53.345Z,11.3
2024-05-09T03:26:58.815Z,11.3
2024-05-09T03:28:04.220Z,11.2
2024-05-09T03:29:10.022Z,11.3
2024-05-09T03:30:25.567Z,11.3
2024-05-09T03:31:20.979Z,11.3
2024-05-09T03:32:26.827Z,11.3
2024-05-09T03:33:32.104Z,11.4
2024-05-09T03:34:37.373Z,11.4
2024-05-09T03:35:43.064Z,11.4
2024-05-09T03:36:48.461Z,11.2
2024-05-09T03:37:53.946Z,11.2
2024-05-09T03:38:59.312Z,11.3
2024-05-09T03:40:07.240Z,11.4
2024-05-09T03:41:11.109Z,11.5
2024-05-09T03:42:16.406Z,11.5
2024-05-09T03:43:22.035Z,11.6
2024-05-09T03:44:27.427Z,11.6
2024-05-09T03:45:32.962Z,11.5
2024-05-09T03:46:38.144Z,11.6
2024-05-09T03:47:43.747Z,11.6
2024-05-09T03:48:49.089Z,11.4
2024-05-09T03:49:54.608Z,11.4
2024-05-09T03:50:59.898Z,11.5
2024-05-09T03:52:05.379Z,11.5
2024-05-09T03:53:10.805Z,11.5
2024-05-09T03:54:16.402Z,11.5
2024-05-09T03:55:22.054Z,11.4
2024-05-09T03:56:27.715Z,11.3
2024-05-09T03:57:33.367Z,11.4
2024-05-09T03:58:38.989Z,11.4
2024-05-09T03:59:44.503Z,11.5
2024-05-09T04:00:50.019Z,11.5
2024-05-09T04:01:55.745Z,11.6
2024-05-09T04:03:01.359Z,11.6
2024-05-09T04:04:06.528Z,11.5
2024-05-09T04:05:11.798Z,11.5
2024-05-09T04:06:20.429Z,11.4
2024-05-09T04:07:28.732Z,11.4
2024-05-09T04:08:34.392Z,11.5
2024-05-09T04:09:39.670Z,11.4
2024-05-09T04:10:43.550Z,11.4
2024-05-09T04:11:47.267Z,11.4
2024-05-09T04:12:57.191Z,11.4
2024-05-09T04:14:04.106Z,11.5
2024-05-09T04:15:12.813Z,11.5
2024-05-09T04:16:15.234Z,11.5
2024-05-09T04:17:20.668Z,11.4
2024-05-09T04:18:26.255Z,11.5
2024-05-09T04:19:31.878Z,11.5
2024-05-09T04:20:39.159Z,11.5
2024-05-09T04:21:43.073Z,11.6
2024-05-09T04:22:48.533Z,11.6
2024-05-09T04:23:53.853Z,11.7
2024-05-09T04:24:59.497Z,11.8
2024-05-09T04:26:05.035Z,11.7
2024-05-09T04:27:10.442Z,11.6
2024-05-09T04:28:18.674Z,11.6
2024-05-09T04:29:24.447Z,11.7
2024-05-09T04:30:34.228Z,11.7
2024-05-09T04:31:35.114Z,11.7
2024-05-09T04:32:40.712Z,11.7
2024-05-09T04:33:46.365Z,11.6
2024-05-09T04:34:51.871Z,11.7
2024-05-09T04:35:57.147Z,11.6
2024-05-09T04:37:02.816Z,11.6
2024-05-09T04:38:08.515Z,11.7
2024-05-09T04:39:14.030Z,11.7
2024-05-09T04:40:23.779Z,11.7
2024-05-09T04:41:25.185Z,11.7
2024-05-09T04:42:30.589Z,11.7
2024-05-09T04:43:35.952Z,11.8
2024-05-09T04:44:41.559Z,11.8
2024-05-09T04:45:46.888Z,11.9
2024-05-09T04:46:52.513Z,11.8
2024-05-09T04:47:57.908Z,11.8
2024-05-09T04:49:03.103Z,11.6
2024-05-09T04:50:11.519Z,11.7
2024-05-09T04:51:14.188Z,11.8
2024-05-09T04:52:19.488Z,11.8
2024-05-09T04:53:25.046Z,11.6
2024-05-09T04:54:35.657Z,11.7
2024-05-09T04:55:36.165Z,11.7
2024-05-09T04:56:41.753Z,11.7
2024-05-09T04:57:47.054Z,11.8
2024-05-09T04:58:52.497Z,11.8
2024-05-09T04:59:57.850Z,11.4
2024-05-09T05:01:03.363Z,11.5
2024-05-09T05:02:08.575Z,11.2
2024-05-09T05:03:15.253Z,11.6
2024-05-09T05:04:19.546Z,11.6
2024-05-09T05:05:25.094Z,11.6
2024-05-09T05:06:30.432Z,11.7
2024-05-09T05:07:35.863Z,11.8
2024-05-09T05:08:41.388Z,11.7
2024-05-09T05:09:46.942Z,11.8
2024-05-09T05:10:52.347Z,11.5
2024-05-09T05:11:57.905Z,11.4
2024-05-09T05:13:03.527Z,11.4
2024-05-09T05:14:13.615Z,11.3
2024-05-09T05:15:19.428Z,11.6
2024-05-09T05:16:24.741Z,11.3
2024-05-09T05:17:33.196Z,11.3
2024-05-09T05:18:38.250Z,11.5
2024-05-09T05:19:44.423Z,11.7
2024-05-09T05:20:49.611Z,11.6
2024-05-09T05:21:55.091Z,11.7
2024-05-09T05:23:00.700Z,11.8
2024-05-09T05:24:05.927Z,11.7
2024-05-09T05:25:11.680Z,11.8
2024-05-09T05:26:17.165Z,11.7
2024-05-09T05:27:22.755Z,11.6
2024-05-09T05:28:28.125Z,11.7
2024-05-09T05:29:33.783Z,11.9
2024-05-09T05:30:39.512Z,12
2024-05-09T05:31:44.646Z,11.9
2024-05-09T05:32:50.283Z,11.9
2024-05-09T05:33:55.352Z,11.9
2024-05-09T05:35:01.130Z,11.8
2024-05-09T05:36:06.568Z,12
2024-05-09T05:37:12.093Z,12.1
2024-05-09T05:38:17.608Z,12.2
2024-05-09T05:39:23.179Z,12
2024-05-09T05:40:33.190Z,12
2024-05-09T05:41:34.131Z,12
2024-05-09T05:42:39.561Z,12.1
2024-05-09T05:43:45.253Z,12
2024-05-09T05:44:50.568Z,11.8
2024-05-09T05:45:56.046Z,12
2024-05-09T05:47:01.562Z,12.2
2024-05-09T05:48:07.068Z,12.4
2024-05-09T05:49:12.549Z,12.4
2024-05-09T05:50:20.866Z,12.5
2024-05-09T05:51:23.057Z,12.6
2024-05-09T05:52:28.223Z,12.7
2024-05-09T05:53:34.021Z,12.7
2024-05-09T05:54:44.756Z,12.5
2024-05-09T05:55:50.449Z,12.4
2024-05-09T05:56:55.698Z,12.5
2024-05-09T05:58:01.321Z,12.5
2024-05-09T05:59:07.132Z,12.7
2024-05-09T06:00:15.223Z,12.7
2024-05-09T06:01:18.289Z,12.4
2024-05-09T06:02:23.118Z,12.6
2024-05-09T06:03:27.870Z,12.7
2024-05-09T06:04:33.520Z,12.8
2024-05-09T06:05:38.240Z,12.8
2024-05-09T06:06:43.007Z,12.9
2024-05-09T06:07:48.547Z,13
2024-05-09T06:08:54.108Z,13
2024-05-09T06:09:59.588Z,13.1
2024-05-09T06:11:05.300Z,13
2024-05-09T06:12:13.771Z,13.1
2024-05-09T06:13:19.147Z,12.9
2024-05-09T06:14:24.740Z,13
2024-05-09T06:15:30.083Z,13.1
2024-05-09T06:16:35.576Z,13.1
2024-05-09T06:17:41.375Z,13.1
2024-05-09T06:18:46.979Z,13.1
2024-05-09T06:19:52.120Z,13.2
2024-05-09T06:20:57.648Z,13.3
2024-05-09T06:22:03.350Z,13.4
2024-05-09T06:23:09.282Z,13.2
2024-05-09T06:24:14.409Z,13.3
2024-05-09T06:25:19.621Z,13.4
2024-05-09T06:26:25.374Z,13.3
2024-05-09T06:27:30.777Z,13.2
2024-05-09T06:28:36.515Z,13.4
2024-05-09T06:29:42.356Z,13.4
2024-05-09T06:30:47.708Z,13.4
2024-05-09T06:31:54.071Z,13.5
2024-05-09T06:32:58.986Z,13.4
2024-05-09T06:34:04.511Z,13.5
2024-05-09T06:35:09.821Z,13.6
2024-05-09T06:36:15.374Z,13.7
2024-05-09T06:37:20.730Z,13.7
2024-05-09T06:38:26.267Z,13.8
2024-05-09T06:39:31.586Z,13.9
2024-05-09T06:40:38.386Z,13.8
2024-05-09T06:41:42.404Z,13.8
2024-05-09T06:42:47.886Z,13.8
2024-05-09T06:43:53.264Z,13.8
2024-05-09T06:44:58.668Z,13.9
2024-05-09T06:46:04.357Z,13.9
2024-05-09T06:47:09.690Z,14
2024-05-09T06:48:15.368Z,14
2024-05-09T06:49:20.700Z,13.9
2024-05-09T06:50:28.054Z,13.9
2024-05-09T06:51:31.531Z,13.9
2024-05-09T06:52:39.453Z,13.9
2024-05-09T06:53:45.185Z,13.9
2024-05-09T06:54:50.944Z,14
2024-05-09T06:55:56.424Z,13.9
2024-05-09T06:57:01.926Z,14.1
2024-05-09T06:58:07.845Z,14.1
2024-05-09T06:59:13.322Z,14.3
2024-05-09T07:00:22.774Z,14.3
2024-05-09T07:01:24.094Z,14.2
2024-05-09T07:02:34.515Z,14.3
2024-05-09T07:03:39.791Z,14.3
2024-05-09T07:04:45.306Z,14.4
2024-05-09T07:05:50.644Z,14.4
2024-05-09T07:06:56.119Z,14.4
2024-05-09T07:08:04.288Z,14.2
2024-05-09T07:09:09.875Z,14.2
2024-05-09T07:10:18.174Z,14.4
2024-05-09T07:11:20.867Z,14.5
2024-05-09T07:12:26.127Z,14.6
2024-05-09T07:13:31.707Z,14.5
2024-05-09T07:14:38.290Z,14.6
2024-05-09T07:15:42.214Z,14.6
2024-05-09T07:16:47.838Z,14.5
2024-05-09T07:17:53.489Z,14.6
2024-05-09T07:18:58.940Z,14.7
2024-05-09T07:20:05.508Z,14.8
2024-05-09T07:21:09.779Z,14.7
2024-05-09T07:22:15.490Z,14.7
2024-05-09T07:23:20.877Z,14.8
2024-05-09T07:24:26.562Z,14.9
2024-05-09T07:25:31.856Z,14.9
2024-05-09T07:26:37.298Z,14.7
2024-05-09T07:27:42.622Z,14.6
2024-05-09T07:28:48.132Z,14.8
2024-05-09T07:29:53.393Z,15
2024-05-09T07:30:58.989Z,14.9
2024-05-09T07:32:04.482Z,14.9
2024-05-09T07:33:09.850Z,15
2024-05-09T07:34:20.188Z,15.1
2024-05-09T07:35:25.479Z,15.1
2024-05-09T07:36:30.896Z,15.1
2024-05-09T07:37:36.270Z,15.3
2024-05-09T07:38:42.039Z,15.4
2024-05-09T07:39:47.633Z,15.4
2024-05-09T07:40:53.107Z,15.4
2024-05-09T07:42:01.151Z,15.4
2024-05-09T07:43:06.488Z,15.4
2024-05-09T07:44:11.626Z,15.2
2024-05-09T07:45:29.168Z,15.4
2024-05-09T07:46:51.542Z,15.4
2024-05-09T07:49:43.877Z,15.5
2024-05-09T07:52:39.332Z,15.5
2024-05-09T07:54:01.443Z,15.5
2024-05-09T07:55:06.404Z,15.4
2024-05-09T07:56:12.276Z,15.4
2024-05-09T07:57:16.690Z,15.2
2024-05-09T07:58:22.038Z,15.2
2024-05-09T07:59:27.573Z,15.3
2024-05-09T08:00:33.382Z,15.4
2024-05-09T08:01:38.548Z,15.4
2024-05-09T08:02:44.121Z,15.5
2024-05-09T08:03:52.333Z,15.6
2024-05-09T08:04:57.840Z,15.7
2024-05-09T08:06:03.252Z,15.7
2024-05-09T08:07:08.859Z,15.7
2024-05-09T08:08:14.270Z,15.8
2024-05-09T08:09:21.077Z,15.7
2024-05-09T08:10:28.501Z,15.8
2024-05-09T08:11:30.705Z,15.7
2024-05-09T08:12:36.091Z,15.8
2024-05-09T08:13:41.484Z,15.8
2024-05-09T08:14:46.846Z,15.9
2024-05-09T08:15:52.338Z,16
2024-05-09T08:16:57.732Z,16
2024-05-09T08:18:03.547Z,16
2024-05-09T08:19:11.628Z,15.9
2024-05-09T08:20:22.794Z,15.8
2024-05-09T08:21:22.406Z,15.6
2024-05-09T08:22:27.875Z,15.8
2024-05-09T08:23:33.397Z,16.1
2024-05-09T08:24:39.050Z,15.8
2024-05-09T08:25:44.949Z,15.6
2024-05-09T08:26:50.426Z,15.9
2024-05-09T08:27:56.001Z,16
2024-05-09T08:29:01.742Z,16
2024-05-09T08:30:10.169Z,16.1
2024-05-09T08:31:12.864Z,16.2
2024-05-09T08:32:18.418Z,16.3
2024-05-09T08:33:23.909Z,16.1
2024-05-09T08:34:29.731Z,16.3
2024-05-09T08:35:35.442Z,16.6
2024-05-09T08:36:40.686Z,16.7
2024-05-09T08:37:45.764Z,16.8
2024-05-09T08:38:51.295Z,16.7
2024-05-09T08:39:56.596Z,16.6
2024-05-09T08:41:02.205Z,16.6
2024-05-09T08:42:07.439Z,16.8
2024-05-09T08:43:13.479Z,16.5
2024-05-09T08:44:18.652Z,16.7
2024-05-09T08:45:24.162Z,16.8
2024-05-09T08:46:29.597Z,16.6
2024-05-09T08:47:35.196Z,16.8
2024-05-09T08:48:40.601Z,16.8
2024-05-09T08:49:46.043Z,17
2024-05-09T08:50:50.897Z,16.9
2024-05-09T08:51:56.569Z,17
2024-05-09T08:53:01.670Z,16.8
2024-05-09T08:54:06.948Z,16.9
2024-05-09T08:55:12.535Z,16.9
2024-05-09T08:56:18.132Z,17
2024-05-09T08:57:23.171Z,17
2024-05-09T08:58:28.176Z,17
2024-05-09T08:59:33.655Z,17
2024-05-09T09:00:42.172Z,17.1
2024-05-09T09:01:47.558Z,16.9
2024-05-09T09:02:52.736Z,17.1
2024-05-09T09:03:58.440Z,17.1
2024-05-09T09:05:04.072Z,17.2
2024-05-09T09:06:09.612Z,17.1
2024-05-09T09:07:15.361Z,17.3
2024-05-09T09:08:20.586Z,17.3
2024-05-09T09:09:26.206Z,17.3
2024-05-09T09:10:32.286Z,17.4
2024-05-09T09:11:37.109Z,17.2
2024-05-09T09:12:42.484Z,16.9
2024-05-09T09:13:48.121Z,17
2024-05-09T09:14:53.526Z,17.2
2024-05-09T09:16:01.795Z,17
2024-05-09T09:17:06.919Z,17.1
2024-05-09T09:18:17.994Z,17.3
2024-05-09T09:19:23.403Z,17.3
2024-05-09T09:20:33.497Z,17.5
2024-05-09T09:21:34.019Z,17.5
2024-05-09T09:22:39.498Z,17.5
2024-05-09T09:23:44.789Z,17.5
2024-05-09T09:24:50.348Z,17.5
2024-05-09T09:25:55.584Z,17.4
2024-05-09T09:27:03.995Z,17.5
2024-05-09T09:28:09.823Z,17.5
2024-05-09T09:29:14.327Z,17.6
2024-05-09T09:30:27.379Z,17.8
2024-05-09T09:31:24.490Z,17.6
2024-05-09T09:32:29.981Z,17.7
2024-05-09T09:33:34.796Z,17.8
2024-05-09T09:34:44.306Z,17.9
2024-05-09T09:35:49.275Z,18
2024-05-09T09:36:54.573Z,18
2024-05-09T09:38:04.272Z,18
2024-05-09T09:39:09.481Z,18.1
2024-05-09T09:40:15.548Z,18.1
2024-05-09T09:41:19.051Z,18.2
2024-05-09T09:42:23.830Z,18.2
2024-05-09T09:43:32.284Z,18.1
2024-05-09T09:44:39.670Z,18.2
2024-05-09T09:45:43.495Z,18.3
2024-05-09T09:46:48.581Z,18.1
2024-05-09T09:47:54.284Z,18.3
2024-05-09T09:48:59.696Z,18.5
2024-05-09T09:50:11.995Z,18.5
2024-05-09T09:51:13.358Z,18.5
2024-05-09T09:52:18.969Z,18.7
2024-05-09T09:53:24.323Z,18.7
2024-05-09T09:54:29.845Z,18.7
2024-05-09T09:55:35.288Z,18.6
2024-05-09T09:56:40.688Z,18.6
2024-05-09T09:57:46.022Z,18.7
2024-05-09T09:58:51.720Z,18.5
2024-05-09T09:59:57.550Z,18.5
2024-05-09T10:01:02.977Z,18.5
2024-05-09T10:02:08.337Z,18.5
2024-05-09T10:03:13.973Z,18.6
2024-05-09T10:04:19.499Z,18.7
2024-05-09T10:05:25.018Z,18.8
2024-05-09T10:06:30.138Z,18.9
2024-05-09T10:07:38.597Z,18.9
2024-05-09T10:08:43.984Z,18.8
2024-05-09T10:09:49.458Z,18.9
2024-05-09T10:10:54.847Z,18.9
2024-05-09T10:12:00.793Z,19.1
2024-05-09T10:13:13.232Z,19.1
2024-05-09T10:14:18.750Z,19.1
2024-05-09T10:15:24.545Z,19.1
2024-05-09T10:16:29.955Z,18.9
2024-05-09T10:17:35.659Z,19.1
2024-05-09T10:18:41.409Z,19.1
2024-05-09T10:19:46.645Z,19.2
2024-05-09T10:20:51.963Z,19.2
2024-05-09T10:21:57.470Z,19.2
2024-05-09T10:23:07.891Z,19.2
2024-05-09T10:24:23.288Z,19.2
2024-05-09T10:25:28.769Z,19.3
2024-05-09T10:26:34.364Z,19.3
2024-05-09T10:27:39.667Z,19.4
2024-05-09T10:28:44.962Z,19.3
2024-05-09T10:29:50.429Z,19.5
2024-05-09T10:31:00.895Z,19.5
2024-05-09T10:32:11.239Z,19.6
2024-05-09T10:33:16.507Z,19.5
2024-05-09T10:34:25.178Z,19.5
2024-05-09T10:35:30.424Z,19.2
2024-05-09T10:36:36.006Z,19.5
2024-05-09T10:37:41.648Z,19.4
2024-05-09T10:38:47.109Z,19.2
2024-05-09T10:39:52.788Z,19.4
2024-05-09T10:41:00.746Z,19.4
2024-05-09T10:42:06.458Z,19.4
2024-05-09T10:43:12.069Z,19.1
2024-05-09T10:44:17.534Z,19.3
2024-05-09T10:45:22.931Z,19.4
2024-05-09T10:46:31.010Z,19.5
2024-05-09T10:47:36.617Z,19.7
2024-05-09T10:48:42.255Z,19.7
2024-05-09T10:49:47.613Z,19.6
2024-05-09T10:50:52.984Z,19.6
2024-05-09T10:51:58.281Z,19.7
2024-05-09T10:53:03.626Z,19.7
2024-05-09T10:54:08.931Z,19.9
2024-05-09T10:55:14.530Z,19.9
2024-05-09T10:56:19.903Z,20
2024-05-09T10:57:25.400Z,20.1
2024-05-09T10:58:31.080Z,20
2024-05-09T10:59:39.311Z,20
2024-05-09T11:00:45.171Z,20
2024-05-09T11:01:50.358Z,19.9
2024-05-09T11:02:55.778Z,20
2024-05-09T11:04:01.124Z,20.2
2024-05-09T11:05:06.574Z,20
2024-05-09T11:06:11.666Z,19.7
2024-05-09T11:07:19.767Z,19.6
2024-05-09T11:08:25.243Z,19.8
2024-05-09T11:09:31.076Z,19.8
2024-05-09T11:10:36.341Z,19.7
2024-05-09T11:11:42.062Z,19.9
2024-05-09T11:12:47.578Z,19.8
2024-05-09T11:13:53.119Z,19.5
2024-05-09T11:14:58.434Z,19.5
2024-05-09T11:16:03.886Z,19.5
2024-05-09T11:17:19.111Z,19.6
2024-05-09T11:18:24.819Z,19.5
2024-05-09T11:19:30.106Z,19.7
2024-05-09T11:20:35.901Z,19.7
2024-05-09T11:21:41.200Z,19.9
2024-05-09T11:22:46.733Z,20
2024-05-09T11:23:52.084Z,20
2024-05-09T11:24:57.520Z,20
2024-05-09T11:26:03.358Z,20
2024-05-09T11:27:08.641Z,20.2
2024-05-09T11:28:14.421Z,20.3
2024-05-09T11:29:19.628Z,20.3
2024-05-09T11:30:26.944Z,20.4
2024-05-09T11:31:30.652Z,20.4
2024-05-09T11:32:36.075Z,20.3
2024-05-09T11:33:41.516Z,20.5
2024-05-09T11:34:49.669Z,20.3
2024-05-09T11:35:57.478Z,20.2
2024-05-09T11:37:06.350Z,20.2
2024-05-09T11:38:11.633Z,20.2
2024-05-09T11:39:17.098Z,20.3
2024-05-09T11:40:25.041Z,20.1
2024-05-09T11:41:27.731Z,20
2024-05-09T11:42:33.326Z,20.1
2024-05-09T11:43:38.954Z,20.2
2024-05-09T11:44:44.149Z,20.3
2024-05-09T11:45:49.828Z,20.4
2024-05-09T11:46:55.237Z,20.4
2024-05-09T11:48:00.825Z,20.5
2024-05-09T11:49:06.054Z,20.4
2024-05-09T11:50:16.058Z,20.5
2024-05-09T11:51:16.777Z,20.5
2024-05-09T11:52:22.436Z,20.4
2024-05-09T11:53:27.916Z,20.5
2024-05-09T11:54:33.559Z,20.5
2024-05-09T11:55:38.838Z,20.6
2024-05-09T11:56:44.338Z,20.6
2024-05-09T11:57:50.030Z,20.5
2024-05-09T11:58:55.460Z,20.5
2024-05-09T12:00:01.429Z,20.3
2024-05-09T12:01:07.146Z,20.4
2024-05-09T12:02:12.964Z,20.5
2024-05-09T12:03:18.159Z,20.4
2024-05-09T12:04:23.722Z,20.4
2024-05-09T12:05:29.371Z,20.4
2024-05-09T12:06:34.410Z,20.5
2024-05-09T12:07:40.041Z,20.4
2024-05-09T12:08:45.385Z,20.2
2024-05-09T12:09:50.959Z,20.5
2024-05-09T12:10:56.810Z,20.6
2024-05-09T12:12:01.766Z,20.7
2024-05-09T12:13:07.638Z,21
2024-05-09T12:14:12.901Z,20.8
2024-05-09T12:15:18.406Z,20.9
2024-05-09T12:16:24.415Z,20.8
2024-05-09T12:17:29.786Z,20.8
2024-05-09T12:18:35.076Z,20.9
2024-05-09T12:19:40.865Z,20.7
2024-05-09T12:20:46.208Z,20.7
2024-05-09T12:21:51.681Z,20.8
2024-05-09T12:22:57.130Z,20.9
2024-05-09T12:24:02.666Z,21
2024-05-09T12:25:08.151Z,21.1
2024-05-09T12:26:13.658Z,21
2024-05-09T12:27:18.788Z,20.9
2024-05-09T12:28:24.501Z,20.8
2024-05-09T12:29:29.846Z,20.7
2024-05-09T12:30:37.211Z,20.9
2024-05-09T12:31:40.798Z,21
2024-05-09T12:32:46.431Z,21
2024-05-09T12:33:51.517Z,21
2024-05-09T12:34:57.203Z,20.9
2024-05-09T12:36:02.888Z,20.8
2024-05-09T12:37:08.360Z,20.9
2024-05-09T12:38:17.126Z,21
2024-05-09T12:39:23.115Z,20.6
2024-05-09T12:40:33.779Z,20.8
2024-05-09T12:41:33.768Z,20.8
2024-05-09T12:42:39.245Z,20.8
2024-05-09T12:43:44.776Z,20.9
2024-05-09T12:44:50.005Z,20.8
2024-05-09T12:45:55.548Z,20.7
2024-05-09T12:47:00.996Z,21
2024-05-09T12:48:06.955Z,21.1
2024-05-09T12:49:13.794Z,20.9
2024-05-09T12:50:22.271Z,21.2
2024-05-09T12:51:23.272Z,21.1
2024-05-09T12:52:28.758Z,21
2024-05-09T12:53:34.472Z,21.1
2024-05-09T12:54:40.001Z,21.2
2024-05-09T12:55:52.587Z,21.3
2024-05-09T12:56:51.018Z,21.4
2024-05-09T12:57:56.740Z,21.3
2024-05-09T12:59:02.124Z,21.3
2024-05-09T13:00:11.571Z,21.3
2024-05-09T13:01:13.663Z,21.3
2024-05-09T13:02:19.381Z,21.5
2024-05-09T13:03:24.875Z,21.5
2024-05-09T13:04:30.650Z,21.6
2024-05-09T13:05:35.741Z,21.6
2024-05-09T13:06:41.111Z,21.7
2024-05-09T13:07:46.821Z,21.5
2024-05-09T13:08:52.012Z,21.5
2024-05-09T13:09:57.401Z,21.3
2024-05-09T13:11:02.778Z,21.2
2024-05-09T13:12:08.471Z,21
2024-05-09T13:13:13.929Z,20.9
2024-05-09T13:14:19.555Z,20.8
2024-05-09T13:15:25.077Z,21
2024-05-09T13:16:30.496Z,21
2024-05-09T13:17:36.168Z,21
2024-05-09T13:18:41.713Z,20.9
2024-05-09T13:19:47.218Z,20.7
2024-05-09T13:20:52.595Z,20.9
2024-05-09T13:21:57.904Z,21.2
2024-05-09T13:23:03.291Z,21.3
2024-05-09T13:24:09.001Z,21.4
2024-05-09T13:25:14.303Z,21
2024-05-09T13:26:19.640Z,21
2024-05-09T13:27:25.062Z,21.1
2024-05-09T13:28:30.485Z,21.1
2024-05-09T13:29:36.015Z,21.3
2024-05-09T13:30:42.106Z,21.3
2024-05-09T13:31:46.935Z,21.2
2024-05-09T13:32:52.333Z,21.3
2024-05-09T13:33:57.752Z,21.3
2024-05-09T13:35:03.140Z,21.5
2024-05-09T13:36:08.502Z,21.5
2024-05-09T13:37:13.805Z,21.5
2024-05-09T13:38:19.642Z,21.4
2024-05-09T13:39:24.777Z,21.4
2024-05-09T13:40:33.221Z,21.4
2024-05-09T13:41:38.382Z,21.5
2024-05-09T13:42:45.138Z,21.7
2024-05-09T13:43:49.053Z,21.8
2024-05-09T13:44:54.815Z,21.9
2024-05-09T13:46:00.256Z,22
2024-05-09T13:47:05.977Z,22
2024-05-09T13:48:11.500Z,21.6
2024-05-09T13:49:16.996Z,21.7
2024-05-09T13:50:27.494Z,21.5
2024-05-09T13:51:27.466Z,21.2
2024-05-09T13:52:32.808Z,21.3
2024-05-09T13:53:38.658Z,21.3
2024-05-09T13:54:44.154Z,21.4
2024-05-09T13:55:49.794Z,21.5
2024-05-09T13:56:57.774Z,21.6
2024-05-09T13:58:03.410Z,21.4
2024-05-09T13:59:08.599Z,21.5
2024-05-09T14:00:22.714Z,21.6
2024-05-09T14:01:19.596Z,21.8
2024-05-09T14:02:24.724Z,21.9
2024-05-09T14:03:30.141Z,21.7
2024-05-09T14:04:34.884Z,21.8
2024-05-09T14:05:39.610Z,21.8
2024-05-09T14:06:45.091Z,21.5
2024-05-09T14:07:49.778Z,21.6
2024-05-09T14:08:54.926Z,21.5
2024-05-09T14:10:00.511Z,21.3
2024-05-09T14:11:05.181Z,21.3
2024-05-09T14:12:11.681Z,21
2024-05-09T14:13:16.350Z,21.2
2024-05-09T14:14:21.326Z,21.4
2024-05-09T14:15:26.192Z,21.3
2024-05-09T14:16:31.879Z,21
2024-05-09T14:17:37.259Z,21.3
2024-05-09T14:18:42.681Z,21.4
2024-05-09T14:19:48.024Z,21.6
2024-05-09T14:20:53.510Z,21.1
2024-05-09T14:21:59.095Z,21
2024-05-09T14:23:04.728Z,21
2024-05-09T14:24:09.915Z,20.7
2024-05-09T14:25:15.331Z,20.8
2024-05-09T14:26:20.614Z,20.7
2024-05-09T14:27:26.469Z,20.7
2024-05-09T14:28:31.903Z,20.7
2024-05-09T14:29:37.471Z,20.7
2024-05-09T14:30:42.946Z,20.7
2024-05-09T14:31:48.302Z,20.7
2024-05-09T14:32:53.681Z,20.7
2024-05-09T14:33:59.158Z,20.7
2024-05-09T14:35:04.534Z,20.7
2024-05-09T14:36:10.110Z,20.7
2024-05-09T14:37:15.674Z,20.7
2024-05-09T14:38:21.245Z,20.7
2024-05-09T14:39:26.896Z,20.7
2024-05-09T14:40:38.683Z,20.6
2024-05-09T14:41:37.701Z,20.6
2024-05-09T14:42:43.378Z,20.6
2024-05-09T14:43:48.685Z,20.3